sensor_id;sensor_type;location;lat;lon;timestamp;temperature;humidity
13898;DHT22;7019;50.766;4.474;2023-12-14T00:02:00;8.00;99.90
13898;DHT22;7019;50.766;4.474;2023-12-14T00:04:27;8.00;99.90
13898;DHT22;7019;50.766;4.474;2023-12-14T00:06:55;8.00;99.90
13898;DHT22;7019;50.766;4.474;2023-12-14T00:09:22;8.00;99.90
13898;DHT22;7019;50.766;4.474;2023-12-14T00:11:49;8.00;99.90
13898;DHT22;7019;50.766;4.474;2023-12-14T00:14:16;8.00;99.90
13898;DHT22;7019;50.766;4.474;2023-12-14T00:16:43;8.00;99.90
13898;DHT22;7019;50.766;4.474;2023-12-14T00:19:11;8.00;99.90
13898;DHT22;7019;50.766;4.474;2023-12-14T00:21:38;8.00;99.90
13898;DHT22;7019;50.766;4.474;2023-12-14T00:24:07;8.00;99.90
13898;DHT22;7019;50.766;4.474;2023-12-14T00:26:34;8.00;99.90
13898;DHT22;7019;50.766;4.474;2023-12-14T00:29:01;8.10;99.90
13898;DHT22;7019;50.766;4.474;2023-12-14T00:31:28;8.10;99.90
13898;DHT22;7019;50.766;4.474;2023-12-14T00:33:55;8.10;99.90
13898;DHT22;7019;50.766;4.474;2023-12-14T00:36:22;8.10;99.90
13898;DHT22;7019;50.766;4.474;2023-12-14T00:38:49;8.10;99.90
13898;DHT22;7019;50.766;4.474;2023-12-14T00:41:17;8.10;99.90
13898;DHT22;7019;50.766;4.474;2023-12-14T00:43:44;8.10;99.90
13898;DHT22;7019;50.766;4.474;2023-12-14T00:46:11;8.10;99.90
13898;DHT22;7019;50.766;4.474;2023-12-14T00:48:38;8.10;99.90
13898;DHT22;7019;50.766;4.474;2023-12-14T00:51:06;8.10;99.90
13898;DHT22;7019;50.766;4.474;2023-12-14T00:53:33;8.10;99.90
13898;DHT22;7019;50.766;4.474;2023-12-14T00:56:00;8.10;99.90
13898;DHT22;7019;50.766;4.474;2023-12-14T00:58:28;8.10;99.90
13898;DHT22;7019;50.766;4.474;2023-12-14T01:00:55;8.10;99.90
13898;DHT22;7019;50.766;4.474;2023-12-14T01:03:22;8.10;99.90
13898;DHT22;7019;50.766;4.474;2023-12-14T01:05:49;8.10;99.90
13898;DHT22;7019;50.766;4.474;2023-12-14T01:08:16;8.10;99.90
13898;DHT22;7019;50.766;4.474;2023-12-14T01:10:43;8.10;99.90
13898;DHT22;7019;50.766;4.474;2023-12-14T01:13:10;8.10;99.90
13898;DHT22;7019;50.766;4.474;2023-12-14T01:15:39;8.10;99.90
13898;DHT22;7019;50.766;4.474;2023-12-14T01:18:06;8.10;99.90
13898;DHT22;7019;50.766;4.474;2023-12-14T01:20:33;8.10;99.90
13898;DHT22;7019;50.766;4.474;2023-12-14T01:23:00;8.10;99.90
13898;DHT22;7019;50.766;4.474;2023-12-14T01:25:27;8.10;99.90
13898;DHT22;7019;50.766;4.474;2023-12-14T01:27:54;8.10;99.90
13898;DHT22;7019;50.766;4.474;2023-12-14T01:30:21;8.10;99.90
13898;DHT22;7019;50.766;4.474;2023-12-14T01:32:50;8.10;99.90
13898;DHT22;7019;50.766;4.474;2023-12-14T01:35:17;8.10;99.90
13898;DHT22;7019;50.766;4.474;2023-12-14T01:37:44;8.10;99.90
13898;DHT22;7019;50.766;4.474;2023-12-14T01:40:12;8.10;99.90
13898;DHT22;7019;50.766;4.474;2023-12-14T01:42:39;8.00;99.90
13898;DHT22;7019;50.766;4.474;2023-12-14T01:45:07;8.00;99.90
13898;DHT22;7019;50.766;4.474;2023-12-14T01:47:34;8.00;99.90
13898;DHT22;7019;50.766;4.474;2023-12-14T01:50:03;8.00;99.90
13898;DHT22;7019;50.766;4.474;2023-12-14T01:52:30;8.00;99.90
13898;DHT22;7019;50.766;4.474;2023-12-14T01:54:57;8.00;99.90
13898;DHT22;7019;50.766;4.474;2023-12-14T01:57:25;8.00;99.90
13898;DHT22;7019;50.766;4.474;2023-12-14T01:59:52;8.00;99.90
13898;DHT22;7019;50.766;4.474;2023-12-14T02:02:19;8.00;99.90
13898;DHT22;7019;50.766;4.474;2023-12-14T02:04:46;8.00;99.90
13898;DHT22;7019;50.766;4.474;2023-12-14T02:07:14;8.00;99.90
13898;DHT22;7019;50.766;4.474;2023-12-14T02:09:41;8.00;99.90
13898;DHT22;7019;50.766;4.474;2023-12-14T02:12:08;8.00;99.90
13898;DHT22;7019;50.766;4.474;2023-12-14T02:14:35;8.00;99.90
13898;DHT22;7019;50.766;4.474;2023-12-14T02:17:03;8.00;99.90
13898;DHT22;7019;50.766;4.474;2023-12-14T02:19:30;7.90;99.90
13898;DHT22;7019;50.766;4.474;2023-12-14T02:21:57;7.90;99.90
13898;DHT22;7019;50.766;4.474;2023-12-14T02:24:25;7.90;99.90
13898;DHT22;7019;50.766;4.474;2023-12-14T02:26:52;7.90;99.90
13898;DHT22;7019;50.766;4.474;2023-12-14T02:29:19;7.90;99.90
13898;DHT22;7019;50.766;4.474;2023-12-14T02:31:47;7.80;99.90
13898;DHT22;7019;50.766;4.474;2023-12-14T02:34:14;7.80;99.90
13898;DHT22;7019;50.766;4.474;2023-12-14T02:36:41;7.80;99.90
13898;DHT22;7019;50.766;4.474;2023-12-14T02:39:08;7.80;99.90
13898;DHT22;7019;50.766;4.474;2023-12-14T02:41:37;7.80;99.90
13898;DHT22;7019;50.766;4.474;2023-12-14T02:44:04;7.80;99.90
13898;DHT22;7019;50.766;4.474;2023-12-14T02:46:31;7.70;99.90
13898;DHT22;7019;50.766;4.474;2023-12-14T02:48:58;7.70;99.90
13898;DHT22;7019;50.766;4.474;2023-12-14T02:51:25;7.70;99.90
13898;DHT22;7019;50.766;4.474;2023-12-14T02:53:52;7.60;99.90
13898;DHT22;7019;50.766;4.474;2023-12-14T02:56:19;7.60;99.90
13898;DHT22;7019;50.766;4.474;2023-12-14T02:58:48;7.60;99.90
13898;DHT22;7019;50.766;4.474;2023-12-14T03:01:18;7.60;99.90
13898;DHT22;7019;50.766;4.474;2023-12-14T03:03:46;7.60;99.90
13898;DHT22;7019;50.766;4.474;2023-12-14T03:06:13;7.60;99.90
13898;DHT22;7019;50.766;4.474;2023-12-14T03:08:40;7.50;99.90
13898;DHT22;7019;50.766;4.474;2023-12-14T03:11:07;7.50;99.90
13898;DHT22;7019;50.766;4.474;2023-12-14T03:13:34;7.40;99.90
13898;DHT22;7019;50.766;4.474;2023-12-14T03:16:03;7.40;99.90
13898;DHT22;7019;50.766;4.474;2023-12-14T03:18:30;7.40;99.90
13898;DHT22;7019;50.766;4.474;2023-12-14T03:20:57;7.40;99.90
13898;DHT22;7019;50.766;4.474;2023-12-14T03:23:25;7.30;99.90
13898;DHT22;7019;50.766;4.474;2023-12-14T03:25:52;7.30;99.90
13898;DHT22;7019;50.766;4.474;2023-12-14T03:28:19;7.30;99.90
13898;DHT22;7019;50.766;4.474;2023-12-14T03:30:46;7.20;99.90
13898;DHT22;7019;50.766;4.474;2023-12-14T03:33:14;7.30;99.90
13898;DHT22;7019;50.766;4.474;2023-12-14T03:35:42;7.20;99.90
13898;DHT22;7019;50.766;4.474;2023-12-14T03:38:10;7.20;99.90
13898;DHT22;7019;50.766;4.474;2023-12-14T03:40:37;7.30;99.90
13898;DHT22;7019;50.766;4.474;2023-12-14T03:43:04;7.30;99.90
13898;DHT22;7019;50.766;4.474;2023-12-14T03:45:31;7.20;99.90
13898;DHT22;7019;50.766;4.474;2023-12-14T03:47:58;7.20;99.90
13898;DHT22;7019;50.766;4.474;2023-12-14T03:50:27;7.20;99.90
13898;DHT22;7019;50.766;4.474;2023-12-14T03:52:54;7.20;99.90
13898;DHT22;7019;50.766;4.474;2023-12-14T03:55:21;7.20;99.90
13898;DHT22;7019;50.766;4.474;2023-12-14T03:57:48;7.20;99.90
13898;DHT22;7019;50.766;4.474;2023-12-14T04:00:16;7.10;99.90
13898;DHT22;7019;50.766;4.474;2023-12-14T04:02:43;7.10;99.90
13898;DHT22;7019;50.766;4.474;2023-12-14T04:05:10;7.10;99.90
13898;DHT22;7019;50.766;4.474;2023-12-14T04:07:39;7.10;99.90
13898;DHT22;7019;50.766;4.474;2023-12-14T04:10:07;7.10;99.90
13898;DHT22;7019;50.766;4.474;2023-12-14T04:12:35;7.10;99.90
13898;DHT22;7019;50.766;4.474;2023-12-14T04:15:03;7.10;99.90
13898;DHT22;7019;50.766;4.474;2023-12-14T04:17:30;7.00;99.90
13898;DHT22;7019;50.766;4.474;2023-12-14T04:19:58;7.00;99.90
13898;DHT22;7019;50.766;4.474;2023-12-14T04:22:25;6.90;99.90
13898;DHT22;7019;50.766;4.474;2023-12-14T04:24:54;6.80;99.90
13898;DHT22;7019;50.766;4.474;2023-12-14T04:27:21;6.80;99.90
13898;DHT22;7019;50.766;4.474;2023-12-14T04:29:52;6.80;99.90
13898;DHT22;7019;50.766;4.474;2023-12-14T04:32:19;6.80;99.90
13898;DHT22;7019;50.766;4.474;2023-12-14T04:34:47;6.70;99.90
13898;DHT22;7019;50.766;4.474;2023-12-14T04:37:14;6.70;99.90
13898;DHT22;7019;50.766;4.474;2023-12-14T04:39:41;6.70;99.90
13898;DHT22;7019;50.766;4.474;2023-12-14T04:42:09;6.70;99.90
13898;DHT22;7019;50.766;4.474;2023-12-14T04:44:36;6.70;99.90
13898;DHT22;7019;50.766;4.474;2023-12-14T04:47:04;6.70;99.90
13898;DHT22;7019;50.766;4.474;2023-12-14T04:49:31;6.60;99.90
13898;DHT22;7019;50.766;4.474;2023-12-14T04:51:58;6.60;99.90
13898;DHT22;7019;50.766;4.474;2023-12-14T04:54:25;6.60;99.90
13898;DHT22;7019;50.766;4.474;2023-12-14T04:56:52;6.50;99.90
13898;DHT22;7019;50.766;4.474;2023-12-14T04:59:20;6.50;99.90
13898;DHT22;7019;50.766;4.474;2023-12-14T05:01:47;6.40;99.90
13898;DHT22;7019;50.766;4.474;2023-12-14T05:04:14;6.40;99.90
13898;DHT22;7019;50.766;4.474;2023-12-14T05:06:41;6.40;99.90
13898;DHT22;7019;50.766;4.474;2023-12-14T05:09:08;6.40;99.90
13898;DHT22;7019;50.766;4.474;2023-12-14T05:11:39;6.40;99.90
13898;DHT22;7019;50.766;4.474;2023-12-14T05:14:06;6.40;99.90
13898;DHT22;7019;50.766;4.474;2023-12-14T05:16:34;6.40;99.90
13898;DHT22;7019;50.766;4.474;2023-12-14T05:19:01;6.40;99.90
13898;DHT22;7019;50.766;4.474;2023-12-14T05:21:28;6.40;99.90
13898;DHT22;7019;50.766;4.474;2023-12-14T05:23:56;6.30;99.90
13898;DHT22;7019;50.766;4.474;2023-12-14T05:26:23;6.30;99.90
13898;DHT22;7019;50.766;4.474;2023-12-14T05:28:50;6.40;99.90
13898;DHT22;7019;50.766;4.474;2023-12-14T05:31:17;6.40;99.90
13898;DHT22;7019;50.766;4.474;2023-12-14T05:33:46;6.40;99.90
13898;DHT22;7019;50.766;4.474;2023-12-14T05:36:13;6.30;99.90
13898;DHT22;7019;50.766;4.474;2023-12-14T05:38:41;6.30;99.90
13898;DHT22;7019;50.766;4.474;2023-12-14T05:41:08;6.30;99.90
13898;DHT22;7019;50.766;4.474;2023-12-14T05:43:35;6.20;99.90
13898;DHT22;7019;50.766;4.474;2023-12-14T05:46:03;6.20;99.90
13898;DHT22;7019;50.766;4.474;2023-12-14T05:48:30;6.30;99.90
13898;DHT22;7019;50.766;4.474;2023-12-14T05:51:00;6.20;99.90
13898;DHT22;7019;50.766;4.474;2023-12-14T05:53:27;6.20;99.90
13898;DHT22;7019;50.766;4.474;2023-12-14T05:55:54;6.20;99.90
13898;DHT22;7019;50.766;4.474;2023-12-14T05:58:21;6.20;99.90
13898;DHT22;7019;50.766;4.474;2023-12-14T06:00:49;6.20;99.90
13898;DHT22;7019;50.766;4.474;2023-12-14T06:03:16;6.20;99.90
13898;DHT22;7019;50.766;4.474;2023-12-14T06:05:43;6.10;99.90
13898;DHT22;7019;50.766;4.474;2023-12-14T06:08:11;6.10;99.90
13898;DHT22;7019;50.766;4.474;2023-12-14T06:10:38;6.20;99.90
13898;DHT22;7019;50.766;4.474;2023-12-14T06:13:05;6.20;99.90
13898;DHT22;7019;50.766;4.474;2023-12-14T06:15:33;6.10;99.90
13898;DHT22;7019;50.766;4.474;2023-12-14T06:17:59;6.10;99.90
13898;DHT22;7019;50.766;4.474;2023-12-14T06:20:27;6.10;99.90
13898;DHT22;7019;50.766;4.474;2023-12-14T06:22:54;6.20;99.90
13898;DHT22;7019;50.766;4.474;2023-12-14T06:25:22;6.20;99.90
13898;DHT22;7019;50.766;4.474;2023-12-14T06:27:49;6.10;99.90
13898;DHT22;7019;50.766;4.474;2023-12-14T06:30:16;6.10;99.90
13898;DHT22;7019;50.766;4.474;2023-12-14T06:32:43;6.10;99.90
13898;DHT22;7019;50.766;4.474;2023-12-14T06:35:11;6.10;99.90
13898;DHT22;7019;50.766;4.474;2023-12-14T06:37:38;6.10;99.90
13898;DHT22;7019;50.766;4.474;2023-12-14T06:40:06;6.10;99.90
13898;DHT22;7019;50.766;4.474;2023-12-14T06:42:35;6.10;99.90
13898;DHT22;7019;50.766;4.474;2023-12-14T06:45:03;6.10;99.90
13898;DHT22;7019;50.766;4.474;2023-12-14T06:47:30;6.10;99.90
13898;DHT22;7019;50.766;4.474;2023-12-14T06:49:57;6.10;99.90
13898;DHT22;7019;50.766;4.474;2023-12-14T06:52:24;6.10;99.90
13898;DHT22;7019;50.766;4.474;2023-12-14T06:54:51;6.00;99.90
13898;DHT22;7019;50.766;4.474;2023-12-14T06:57:18;6.10;99.90
13898;DHT22;7019;50.766;4.474;2023-12-14T06:59:46;6.00;99.90
13898;DHT22;7019;50.766;4.474;2023-12-14T07:02:13;6.00;99.90
13898;DHT22;7019;50.766;4.474;2023-12-14T07:04:40;6.00;99.90
13898;DHT22;7019;50.766;4.474;2023-12-14T07:07:07;6.00;99.90
13898;DHT22;7019;50.766;4.474;2023-12-14T07:09:35;6.00;99.90
13898;DHT22;7019;50.766;4.474;2023-12-14T07:12:03;6.00;99.90
13898;DHT22;7019;50.766;4.474;2023-12-14T07:14:30;6.00;99.90
13898;DHT22;7019;50.766;4.474;2023-12-14T07:16:58;6.00;99.90
13898;DHT22;7019;50.766;4.474;2023-12-14T07:19:25;6.00;99.90
13898;DHT22;7019;50.766;4.474;2023-12-14T07:21:52;6.00;99.90
13898;DHT22;7019;50.766;4.474;2023-12-14T07:24:19;6.00;99.90
13898;DHT22;7019;50.766;4.474;2023-12-14T07:26:46;5.90;99.90
13898;DHT22;7019;50.766;4.474;2023-12-14T07:29:13;5.90;99.90
13898;DHT22;7019;50.766;4.474;2023-12-14T07:31:40;5.90;99.90
13898;DHT22;7019;50.766;4.474;2023-12-14T07:34:09;6.00;99.90
13898;DHT22;7019;50.766;4.474;2023-12-14T07:36:36;5.90;99.90
13898;DHT22;7019;50.766;4.474;2023-12-14T07:39:03;5.90;99.90
13898;DHT22;7019;50.766;4.474;2023-12-14T07:41:31;5.90;99.90
13898;DHT22;7019;50.766;4.474;2023-12-14T07:43:58;5.80;99.90
13898;DHT22;7019;50.766;4.474;2023-12-14T07:46:25;5.80;99.90
13898;DHT22;7019;50.766;4.474;2023-12-14T07:48:52;5.60;99.90
13898;DHT22;7019;50.766;4.474;2023-12-14T07:51:21;5.40;99.90
13898;DHT22;7019;50.766;4.474;2023-12-14T07:53:48;5.40;99.90
13898;DHT22;7019;50.766;4.474;2023-12-14T07:56:15;5.20;99.90
13898;DHT22;7019;50.766;4.474;2023-12-14T07:58:42;5.20;99.90
13898;DHT22;7019;50.766;4.474;2023-12-14T08:01:09;5.10;99.90
13898;DHT22;7019;50.766;4.474;2023-12-14T08:03:36;5.10;99.90
13898;DHT22;7019;50.766;4.474;2023-12-14T08:06:04;5.10;99.90
13898;DHT22;7019;50.766;4.474;2023-12-14T08:08:32;5.30;99.90
13898;DHT22;7019;50.766;4.474;2023-12-14T08:10:59;5.30;99.90
13898;DHT22;7019;50.766;4.474;2023-12-14T08:13:26;5.40;99.90
13898;DHT22;7019;50.766;4.474;2023-12-14T08:15:53;5.50;99.90
13898;DHT22;7019;50.766;4.474;2023-12-14T08:18:20;5.50;99.90
13898;DHT22;7019;50.766;4.474;2023-12-14T08:20:47;5.60;99.90
13898;DHT22;7019;50.766;4.474;2023-12-14T08:23:14;5.60;99.90
13898;DHT22;7019;50.766;4.474;2023-12-14T08:25:43;5.50;99.90
13898;DHT22;7019;50.766;4.474;2023-12-14T08:28:10;5.50;99.90
13898;DHT22;7019;50.766;4.474;2023-12-14T08:30:37;5.50;99.90
13898;DHT22;7019;50.766;4.474;2023-12-14T08:33:04;5.40;99.90
13898;DHT22;7019;50.766;4.474;2023-12-14T08:35:31;5.40;99.90
13898;DHT22;7019;50.766;4.474;2023-12-14T08:37:57;5.30;99.90
13898;DHT22;7019;50.766;4.474;2023-12-14T08:40:24;5.20;99.90
13898;DHT22;7019;50.766;4.474;2023-12-14T08:42:53;5.20;99.90
13898;DHT22;7019;50.766;4.474;2023-12-14T08:45:20;5.20;99.90
13898;DHT22;7019;50.766;4.474;2023-12-14T08:47:47;5.10;99.90
13898;DHT22;7019;50.766;4.474;2023-12-14T08:50:14;5.10;99.90
13898;DHT22;7019;50.766;4.474;2023-12-14T08:52:41;5.10;99.90
13898;DHT22;7019;50.766;4.474;2023-12-14T08:55:08;5.10;99.90
13898;DHT22;7019;50.766;4.474;2023-12-14T08:57:36;5.10;99.90
13898;DHT22;7019;50.766;4.474;2023-12-14T09:00:05;5.10;99.90
13898;DHT22;7019;50.766;4.474;2023-12-14T09:02:33;5.00;99.90
13898;DHT22;7019;50.766;4.474;2023-12-14T09:05:00;5.00;99.90
13898;DHT22;7019;50.766;4.474;2023-12-14T09:07:27;5.00;99.90
13898;DHT22;7019;50.766;4.474;2023-12-14T09:09:54;5.00;99.90
13898;DHT22;7019;50.766;4.474;2023-12-14T09:12:21;5.00;99.90
13898;DHT22;7019;50.766;4.474;2023-12-14T09:14:48;5.10;99.90
13898;DHT22;7019;50.766;4.474;2023-12-14T09:17:16;5.20;99.90
13898;DHT22;7019;50.766;4.474;2023-12-14T09:19:44;5.40;99.90
13898;DHT22;7019;50.766;4.474;2023-12-14T09:22:11;5.60;99.90
13898;DHT22;7019;50.766;4.474;2023-12-14T09:24:38;5.80;99.90
13898;DHT22;7019;50.766;4.474;2023-12-14T09:27:05;6.00;99.90
13898;DHT22;7019;50.766;4.474;2023-12-14T09:29:32;6.10;99.90
13898;DHT22;7019;50.766;4.474;2023-12-14T09:31:59;6.20;99.90
13898;DHT22;7019;50.766;4.474;2023-12-14T09:34:27;6.30;99.90
13898;DHT22;7019;50.766;4.474;2023-12-14T09:36:54;6.50;99.90
13898;DHT22;7019;50.766;4.474;2023-12-14T09:39:21;6.60;99.90
13898;DHT22;7019;50.766;4.474;2023-12-14T09:41:50;6.70;99.90
13898;DHT22;7019;50.766;4.474;2023-12-14T09:44:17;6.70;99.90
13898;DHT22;7019;50.766;4.474;2023-12-14T09:46:45;6.80;99.90
13898;DHT22;7019;50.766;4.474;2023-12-14T09:49:15;6.70;99.90
13898;DHT22;7019;50.766;4.474;2023-12-14T09:51:45;6.70;99.90
13898;DHT22;7019;50.766;4.474;2023-12-14T09:54:12;6.70;99.90
13898;DHT22;7019;50.766;4.474;2023-12-14T09:56:46;6.80;99.90
13898;DHT22;7019;50.766;4.474;2023-12-14T09:59:13;6.80;99.90
13898;DHT22;7019;50.766;4.474;2023-12-14T10:01:40;6.80;99.90
13898;DHT22;7019;50.766;4.474;2023-12-14T10:04:10;6.80;99.90
13898;DHT22;7019;50.766;4.474;2023-12-14T10:06:38;6.80;99.90
13898;DHT22;7019;50.766;4.474;2023-12-14T10:09:07;6.80;99.90
13898;DHT22;7019;50.766;4.474;2023-12-14T10:11:35;6.80;99.90
13898;DHT22;7019;50.766;4.474;2023-12-14T10:14:03;6.80;99.90
13898;DHT22;7019;50.766;4.474;2023-12-14T10:16:44;6.80;99.90
13898;DHT22;7019;50.766;4.474;2023-12-14T10:19:11;6.80;99.90
13898;DHT22;7019;50.766;4.474;2023-12-14T10:21:38;6.90;99.90
13898;DHT22;7019;50.766;4.474;2023-12-14T10:24:08;6.90;99.90
13898;DHT22;7019;50.766;4.474;2023-12-14T10:26:35;6.80;99.90
13898;DHT22;7019;50.766;4.474;2023-12-14T10:29:02;6.90;99.90
13898;DHT22;7019;50.766;4.474;2023-12-14T10:31:31;6.90;99.90
13898;DHT22;7019;50.766;4.474;2023-12-14T10:34:03;6.90;99.90
13898;DHT22;7019;50.766;4.474;2023-12-14T10:36:30;6.90;99.90
13898;DHT22;7019;50.766;4.474;2023-12-14T10:38:59;7.00;99.90
13898;DHT22;7019;50.766;4.474;2023-12-14T10:41:30;7.00;99.90
13898;DHT22;7019;50.766;4.474;2023-12-14T10:44:00;7.00;99.90
13898;DHT22;7019;50.766;4.474;2023-12-14T10:46:28;7.00;99.90
13898;DHT22;7019;50.766;4.474;2023-12-14T10:48:56;7.00;99.90
13898;DHT22;7019;50.766;4.474;2023-12-14T10:51:25;7.10;99.90
13898;DHT22;7019;50.766;4.474;2023-12-14T10:53:53;7.00;99.90
13898;DHT22;7019;50.766;4.474;2023-12-14T10:56:20;6.90;99.90
13898;DHT22;7019;50.766;4.474;2023-12-14T10:58:51;6.90;99.90
13898;DHT22;7019;50.766;4.474;2023-12-14T11:01:21;6.90;99.90
13898;DHT22;7019;50.766;4.474;2023-12-14T11:03:50;6.90;99.90
13898;DHT22;7019;50.766;4.474;2023-12-14T11:06:27;6.90;99.90
13898;DHT22;7019;50.766;4.474;2023-12-14T11:08:59;7.00;99.90
13898;DHT22;7019;50.766;4.474;2023-12-14T11:11:30;7.10;99.90
13898;DHT22;7019;50.766;4.474;2023-12-14T11:13:58;7.20;99.90
13898;DHT22;7019;50.766;4.474;2023-12-14T11:16:26;7.30;99.90
13898;DHT22;7019;50.766;4.474;2023-12-14T11:19:23;7.40;99.90
13898;DHT22;7019;50.766;4.474;2023-12-14T11:22:12;7.50;99.90
13898;DHT22;7019;50.766;4.474;2023-12-14T11:24:45;7.50;99.90
13898;DHT22;7019;50.766;4.474;2023-12-14T11:27:20;7.60;99.90
13898;DHT22;7019;50.766;4.474;2023-12-14T11:29:49;7.70;99.90
13898;DHT22;7019;50.766;4.474;2023-12-14T11:32:17;7.60;99.90
13898;DHT22;7019;50.766;4.474;2023-12-14T11:34:46;7.60;99.90
13898;DHT22;7019;50.766;4.474;2023-12-14T11:37:14;7.60;99.90
13898;DHT22;7019;50.766;4.474;2023-12-14T11:39:41;7.60;99.90
13898;DHT22;7019;50.766;4.474;2023-12-14T11:42:09;7.70;99.90
13898;DHT22;7019;50.766;4.474;2023-12-14T11:44:37;7.70;99.90
13898;DHT22;7019;50.766;4.474;2023-12-14T11:47:06;7.70;99.90
13898;DHT22;7019;50.766;4.474;2023-12-14T11:49:34;7.70;99.90
13898;DHT22;7019;50.766;4.474;2023-12-14T11:52:02;7.70;99.90
13898;DHT22;7019;50.766;4.474;2023-12-14T11:54:31;7.60;99.90
13898;DHT22;7019;50.766;4.474;2023-12-14T11:57:01;7.60;99.90
13898;DHT22;7019;50.766;4.474;2023-12-14T11:59:31;7.60;99.90
13898;DHT22;7019;50.766;4.474;2023-12-14T12:01:59;7.60;99.90
13898;DHT22;7019;50.766;4.474;2023-12-14T12:04:28;7.50;99.90
13898;DHT22;7019;50.766;4.474;2023-12-14T12:07:00;7.50;99.90
13898;DHT22;7019;50.766;4.474;2023-12-14T12:09:37;7.50;99.90
13898;DHT22;7019;50.766;4.474;2023-12-14T12:12:08;7.40;99.90
13898;DHT22;7019;50.766;4.474;2023-12-14T12:14:36;7.40;99.90
13898;DHT22;7019;50.766;4.474;2023-12-14T12:17:04;7.40;99.90
13898;DHT22;7019;50.766;4.474;2023-12-14T12:19:33;7.40;99.90
13898;DHT22;7019;50.766;4.474;2023-12-14T12:22:01;7.30;99.90
13898;DHT22;7019;50.766;4.474;2023-12-14T12:24:28;7.20;99.90
13898;DHT22;7019;50.766;4.474;2023-12-14T12:26:55;7.20;99.90
13898;DHT22;7019;50.766;4.474;2023-12-14T12:29:22;7.10;99.90
13898;DHT22;7019;50.766;4.474;2023-12-14T12:31:49;7.10;99.90
13898;DHT22;7019;50.766;4.474;2023-12-14T12:34:17;7.20;99.90
13898;DHT22;7019;50.766;4.474;2023-12-14T12:36:45;7.20;99.90
13898;DHT22;7019;50.766;4.474;2023-12-14T12:39:12;7.20;99.90
13898;DHT22;7019;50.766;4.474;2023-12-14T12:41:40;7.20;99.90
13898;DHT22;7019;50.766;4.474;2023-12-14T12:44:07;7.20;99.90
13898;DHT22;7019;50.766;4.474;2023-12-14T12:46:35;7.20;99.90
13898;DHT22;7019;50.766;4.474;2023-12-14T12:49:03;7.20;99.90
13898;DHT22;7019;50.766;4.474;2023-12-14T12:51:30;7.10;99.90
13898;DHT22;7019;50.766;4.474;2023-12-14T12:53:59;7.10;99.90
13898;DHT22;7019;50.766;4.474;2023-12-14T12:56:26;7.10;99.90
13898;DHT22;7019;50.766;4.474;2023-12-14T12:58:54;7.20;99.90
13898;DHT22;7019;50.766;4.474;2023-12-14T13:01:21;7.20;99.90
13898;DHT22;7019;50.766;4.474;2023-12-14T13:03:53;7.20;99.90
13898;DHT22;7019;50.766;4.474;2023-12-14T13:06:20;7.30;99.90
13898;DHT22;7019;50.766;4.474;2023-12-14T13:08:47;7.20;99.90
13898;DHT22;7019;50.766;4.474;2023-12-14T13:11:16;7.20;99.90
13898;DHT22;7019;50.766;4.474;2023-12-14T13:13:43;7.20;99.90
13898;DHT22;7019;50.766;4.474;2023-12-14T13:16:10;7.30;99.90
13898;DHT22;7019;50.766;4.474;2023-12-14T13:18:39;7.30;99.90
13898;DHT22;7019;50.766;4.474;2023-12-14T13:21:06;7.30;99.90
13898;DHT22;7019;50.766;4.474;2023-12-14T13:23:33;7.30;99.90
13898;DHT22;7019;50.766;4.474;2023-12-14T13:26:00;7.30;99.90
13898;DHT22;7019;50.766;4.474;2023-12-14T13:28:29;7.30;99.90
13898;DHT22;7019;50.766;4.474;2023-12-14T13:30:56;7.30;99.90
13898;DHT22;7019;50.766;4.474;2023-12-14T13:33:23;7.40;99.90
13898;DHT22;7019;50.766;4.474;2023-12-14T13:35:50;7.30;99.90
13898;DHT22;7019;50.766;4.474;2023-12-14T13:38:17;7.30;99.90
13898;DHT22;7019;50.766;4.474;2023-12-14T13:40:44;7.30;99.90
13898;DHT22;7019;50.766;4.474;2023-12-14T13:43:11;7.30;99.90
13898;DHT22;7019;50.766;4.474;2023-12-14T13:45:40;7.30;99.90
13898;DHT22;7019;50.766;4.474;2023-12-14T13:48:07;7.30;99.90
13898;DHT22;7019;50.766;4.474;2023-12-14T13:50:35;7.20;99.90
13898;DHT22;7019;50.766;4.474;2023-12-14T13:53:02;7.20;99.90
13898;DHT22;7019;50.766;4.474;2023-12-14T13:55:30;7.20;99.90
13898;DHT22;7019;50.766;4.474;2023-12-14T13:57:57;7.20;99.90
13898;DHT22;7019;50.766;4.474;2023-12-14T14:00:26;7.20;99.90
13898;DHT22;7019;50.766;4.474;2023-12-14T14:02:54;7.20;99.90
13898;DHT22;7019;50.766;4.474;2023-12-14T14:05:22;7.10;99.90
13898;DHT22;7019;50.766;4.474;2023-12-14T14:07:50;7.20;99.90
13898;DHT22;7019;50.766;4.474;2023-12-14T14:10:17;7.10;99.90
13898;DHT22;7019;50.766;4.474;2023-12-14T14:12:45;7.20;99.90
13898;DHT22;7019;50.766;4.474;2023-12-14T14:15:12;7.20;99.90
13898;DHT22;7019;50.766;4.474;2023-12-14T14:17:40;7.20;99.90
13898;DHT22;7019;50.766;4.474;2023-12-14T14:20:09;7.20;99.90
13898;DHT22;7019;50.766;4.474;2023-12-14T14:22:36;7.20;99.90
13898;DHT22;7019;50.766;4.474;2023-12-14T14:25:04;7.20;99.90
13898;DHT22;7019;50.766;4.474;2023-12-14T14:27:32;7.20;99.90
13898;DHT22;7019;50.766;4.474;2023-12-14T14:29:59;7.30;99.90
13898;DHT22;7019;50.766;4.474;2023-12-14T14:32:27;7.30;99.90
13898;DHT22;7019;50.766;4.474;2023-12-14T14:34:57;7.30;99.90
13898;DHT22;7019;50.766;4.474;2023-12-14T14:37:27;7.30;99.90
13898;DHT22;7019;50.766;4.474;2023-12-14T14:39:54;7.30;99.90
13898;DHT22;7019;50.766;4.474;2023-12-14T14:42:21;7.20;99.90
13898;DHT22;7019;50.766;4.474;2023-12-14T14:44:48;7.30;99.90
13898;DHT22;7019;50.766;4.474;2023-12-14T14:47:15;7.20;99.90
13898;DHT22;7019;50.766;4.474;2023-12-14T14:49:43;7.20;99.90
13898;DHT22;7019;50.766;4.474;2023-12-14T14:52:10;7.20;99.90
13898;DHT22;7019;50.766;4.474;2023-12-14T14:54:38;7.20;99.90
13898;DHT22;7019;50.766;4.474;2023-12-14T14:57:06;7.20;99.90
13898;DHT22;7019;50.766;4.474;2023-12-14T14:59:33;7.20;99.90
13898;DHT22;7019;50.766;4.474;2023-12-14T15:02:00;7.10;99.90
13898;DHT22;7019;50.766;4.474;2023-12-14T15:04:27;7.10;99.90
13898;DHT22;7019;50.766;4.474;2023-12-14T15:06:55;7.10;99.90
13898;DHT22;7019;50.766;4.474;2023-12-14T15:09:22;7.10;99.90
13898;DHT22;7019;50.766;4.474;2023-12-14T15:11:50;7.10;99.90
13898;DHT22;7019;50.766;4.474;2023-12-14T15:14:17;7.10;99.90
13898;DHT22;7019;50.766;4.474;2023-12-14T15:16:44;7.10;99.90
13898;DHT22;7019;50.766;4.474;2023-12-14T15:19:12;7.00;99.90
13898;DHT22;7019;50.766;4.474;2023-12-14T15:21:39;7.00;99.90
13898;DHT22;7019;50.766;4.474;2023-12-14T15:24:07;6.90;99.90
13898;DHT22;7019;50.766;4.474;2023-12-14T15:26:34;6.90;99.90
13898;DHT22;7019;50.766;4.474;2023-12-14T15:29:03;6.90;99.90
13898;DHT22;7019;50.766;4.474;2023-12-14T15:31:30;6.80;99.90
13898;DHT22;7019;50.766;4.474;2023-12-14T15:33:58;6.80;99.90
13898;DHT22;7019;50.766;4.474;2023-12-14T15:36:26;6.80;99.90
13898;DHT22;7019;50.766;4.474;2023-12-14T15:38:55;6.70;99.90
13898;DHT22;7019;50.766;4.474;2023-12-14T15:41:22;6.60;99.90
13898;DHT22;7019;50.766;4.474;2023-12-14T15:43:49;6.60;99.90
13898;DHT22;7019;50.766;4.474;2023-12-14T15:46:18;6.50;99.90
13898;DHT22;7019;50.766;4.474;2023-12-14T15:48:45;6.50;99.90
13898;DHT22;7019;50.766;4.474;2023-12-14T15:51:12;6.50;99.90
13898;DHT22;7019;50.766;4.474;2023-12-14T15:53:39;6.50;99.90
13898;DHT22;7019;50.766;4.474;2023-12-14T15:56:07;6.50;99.90
13898;DHT22;7019;50.766;4.474;2023-12-14T15:58:35;6.50;99.90
13898;DHT22;7019;50.766;4.474;2023-12-14T16:01:02;6.50;99.90
13898;DHT22;7019;50.766;4.474;2023-12-14T16:03:30;6.50;99.90
13898;DHT22;7019;50.766;4.474;2023-12-14T16:05:59;6.60;99.90